Quick Links (Output Below):   Max & Min Temps   /   Climate Reports   /   Zone Forecasts
River Forecasts   /   Forestry Forecasts   /   Aviation Forecasts   /   Radars   /   Features

Terminal Aerodrome Forecast (Fayetteville)

Pick a Site:
Arkadelphia | El Dorado | Fayetteville | Fort Smith | Harrison | Highfill | Hot Springs | Jonesboro
Little Rock | Monticello | Mountain Home | Pine Bluff | Texarkana
 Forecast 

KFYV 241726Z 2418/2518 17010KT P6SM SCT040
     FM250100 16004KT P6SM SCT250
     FM251500 21006KT P6SM SCT040 BKN250=


 Latest METARs (Observations) 
How to Decode METARs
20Z KFYV 241953Z AUTO 15011KT 10SM CLR 30/21 A3003 RMK AO2 SLP154
         T03000211
         
19Z KFYV 241853Z 14010KT 10SM SCT043 30/21 A3006 RMK AO2 SLP167
         T03000211
         
18Z KFYV 241753Z 18007KT 10SM CLR 30/22 A3009 RMK AO2 SLP174 T03000217
         10300 20167 58002
         
17Z KFYV 241653Z 17012KT 10SM FEW036 29/22 A3009 RMK AO2 SLP177
         T02940217
         
16Z KFYV 241553Z 16010KT 10SM CLR 28/22 A3010 RMK AO2 SLP179
         T02830222
         
15Z KFYV 241453Z 17008KT 10SM CLR 27/22 A3009 RMK AO2 SLP176 T02720222
         50005
         
14Z KFYV 241353Z 00000KT 10SM CLR 23/22 A3010 RMK AO2 SLP178
         T02330217
         
13Z KFYV 241253Z 00000KT 7SM CLR 18/18 A3009 RMK AO2 SLP180
         T01830183
         
12Z KFYV 241153Z 00000KT 7SM CLR 17/17 A3008 RMK AO2 SLP172 T01720172
         10194 20172 51007
         
11Z KFYV 241053Z 00000KT 7SM CLR 18/18 A3007 RMK AO2 SLP169
         T01780178
         
***** Today's Observations (Above) *****


Back to Main Page
http://www.srh.noaa.gov/lzk/qfcst.php

USA.gov is the U.S. government's official web portal to all federal, state and local government web resources and services.